Terminal Aerodrome Forecast
Issued by NWS Wilmington, OH

Current Version | Previous Version | Graphics & Text | Print | Product List | Glossary On
Versions: 1 2 3 4 5 6 7 8 9 10 11 12 13 14 15 16 17 18 19 20 21 22 23 24 25 26 27 28 29 30 31
000
FTUS41 KILN 310500
TAFCVG
TAF
KCVG 310527Z 3106/0112 17007KT P6SM SCT060 BKN150
      TEMPO 3106/3108 5SM -SHRA OVC035
     FM311000 22010KT P6SM OVC015
     FM311500 22012KT P6SM VCSH OVC025
     FM312100 27012KT P6SM BKN025
     FM010100 32006KT P6SM OVC015=

USA.gov is the U.S. government's official web portal to all federal, state and local government web resources and services.